createdAt,value
2023-02-19T00:01:31.686Z,53.53
2023-02-19T00:03:59.021Z,53.56
2023-02-19T00:06:25.845Z,53.45
2023-02-19T00:08:52.163Z,53.38
2023-02-19T00:11:19.195Z,53.38
2023-02-19T00:13:46.398Z,53.45
2023-02-19T00:16:13.599Z,53.65
2023-02-19T00:18:39.939Z,53.57
2023-02-19T00:21:06.275Z,53.47
2023-02-19T00:23:32.648Z,53.59
2023-02-19T00:26:17.269Z,53.39
2023-02-19T00:28:45.028Z,53.52
2023-02-19T00:31:18.692Z,53.47
2023-02-19T00:33:45.448Z,53.44
2023-02-19T00:36:11.943Z,53.50
2023-02-19T00:38:38.465Z,53.32
2023-02-19T00:41:18.931Z,53.35
2023-02-19T00:43:46.020Z,53.28
2023-02-19T00:46:12.424Z,53.48
2023-02-19T00:48:38.798Z,53.45
2023-02-19T00:51:05.141Z,53.42
2023-02-19T00:53:31.479Z,53.55
2023-02-19T00:55:57.799Z,53.34
2023-02-19T00:58:24.257Z,53.43
2023-02-19T01:00:50.590Z,53.50
2023-02-19T01:03:16.942Z,53.34
2023-02-19T01:05:43.282Z,53.40
2023-02-19T01:08:09.625Z,53.34
2023-02-19T01:10:35.961Z,53.30
2023-02-19T01:13:02.317Z,53.35
2023-02-19T01:15:28.648Z,53.32
2023-02-19T01:17:54.983Z,53.37
2023-02-19T01:20:21.317Z,53.23
2023-02-19T01:22:47.653Z,53.34
2023-02-19T01:25:13.976Z,53.28
2023-02-19T01:27:40.300Z,53.49
2023-02-19T01:30:06.804Z,53.51
2023-02-19T01:32:33.175Z,53.59
2023-02-19T01:34:59.683Z,53.75
2023-02-19T01:37:26.181Z,53.72
2023-02-19T01:39:52.548Z,53.30
2023-02-19T01:42:18.863Z,53.34
2023-02-19T01:44:45.268Z,53.51
2023-02-19T01:47:11.802Z,53.18
2023-02-19T01:49:39.704Z,53.34
2023-02-19T01:52:08.073Z,53.39
2023-02-19T01:54:34.760Z,53.24
2023-02-19T01:57:01.810Z,53.22
2023-02-19T01:59:28.165Z,53.54
2023-02-19T02:01:54.549Z,53.37
2023-02-19T02:04:20.929Z,53.39
2023-02-19T02:06:56.795Z,53.41
2023-02-19T02:09:43.526Z,53.38
2023-02-19T02:12:09.880Z,53.75
2023-02-19T02:14:36.684Z,53.75
2023-02-19T02:17:19.081Z,53.38
2023-02-19T02:19:48.307Z,53.43
2023-02-19T02:22:21.082Z,53.53
2023-02-19T02:24:55.200Z,53.40
2023-02-19T02:27:39.311Z,53.60
2023-02-19T02:30:25.368Z,53.50
2023-02-19T02:33:10.599Z,53.59
2023-02-19T02:35:45.773Z,53.56
2023-02-19T02:38:12.266Z,53.51
2023-02-19T02:40:39.297Z,53.48
2023-02-19T02:43:05.759Z,53.64
2023-02-19T02:45:35.249Z,53.43
2023-02-19T02:48:17.126Z,53.56
2023-02-19T02:59:06.636Z,53.60
2023-02-19T03:01:54.816Z,53.58
2023-02-19T03:04:26.298Z,53.61
2023-02-19T03:06:53.033Z,53.63
2023-02-19T03:09:30.161Z,53.59
2023-02-19T03:12:16.546Z,53.58
2023-02-19T03:15:11.519Z,53.38
2023-02-19T03:18:15.816Z,53.42
2023-02-19T03:20:43.632Z,53.35
2023-02-19T03:23:09.959Z,53.31
2023-02-19T03:25:55.044Z,53.36
2023-02-19T03:28:51.136Z,53.30
2023-02-19T03:31:18.827Z,53.31
2023-02-19T03:33:45.763Z,53.30
2023-02-19T03:36:12.704Z,53.30
2023-02-19T03:38:40.320Z,53.13
2023-02-19T03:41:10.270Z,53.02
2023-02-19T03:43:48.735Z,53.37
2023-02-19T03:46:17.217Z,53.28
2023-02-19T03:48:51.569Z,53.29
2023-02-19T03:51:25.321Z,53.19
2023-02-19T03:53:53.639Z,53.39
2023-02-19T03:56:22.793Z,53.44
2023-02-19T03:58:51.159Z,53.32
2023-02-19T04:01:19.765Z,53.09
2023-02-19T04:03:50.993Z,52.99
2023-02-19T04:06:18.029Z,53.28
2023-02-19T04:08:45.248Z,53.34
2023-02-19T04:11:12.103Z,53.43
2023-02-19T04:13:46.667Z,53.17
2023-02-19T04:16:14.962Z,53.40
2023-02-19T04:18:41.302Z,53.27
2023-02-19T04:21:07.645Z,53.15
2023-02-19T04:23:35.571Z,53.11
2023-02-19T04:26:01.915Z,53.19
2023-02-19T04:28:28.440Z,53.33
2023-02-19T04:30:54.789Z,53.57
2023-02-19T04:33:21.114Z,53.15
2023-02-19T04:35:47.440Z,53.25
2023-02-19T04:38:14.312Z,53.11
2023-02-19T04:40:40.657Z,53.17
2023-02-19T04:43:06.995Z,53.40
2023-02-19T04:45:33.317Z,53.10
2023-02-19T04:47:59.671Z,53.13
2023-02-19T04:50:26.021Z,53.11
2023-02-19T04:52:52.335Z,53.31
2023-02-19T04:55:18.678Z,53.30
2023-02-19T04:57:45.028Z,53.44
2023-02-19T05:00:11.431Z,53.27
2023-02-19T05:02:37.749Z,53.19
2023-02-19T05:05:04.164Z,53.21
2023-02-19T05:07:30.516Z,53.39
2023-02-19T05:09:57.005Z,53.04
2023-02-19T05:12:23.334Z,53.30
2023-02-19T05:14:49.727Z,53.28
2023-02-19T05:17:16.100Z,53.14
2023-02-19T05:19:42.436Z,53.27
2023-02-19T05:22:08.800Z,53.34
2023-02-19T05:24:35.124Z,53.07
2023-02-19T05:27:01.437Z,53.14
2023-02-19T05:29:27.777Z,53.29
2023-02-19T05:31:54.157Z,53.15
2023-02-19T05:34:20.608Z,53.29
2023-02-19T05:36:46.932Z,53.09
2023-02-19T05:39:13.259Z,53.37
2023-02-19T05:41:39.580Z,53.23
2023-02-19T05:44:05.943Z,53.29
2023-02-19T05:46:32.739Z,53.24
2023-02-19T05:48:59.171Z,53.27
2023-02-19T05:51:25.919Z,53.21
2023-02-19T05:53:52.248Z,53.24
2023-02-19T05:56:34.873Z,53.41
2023-02-19T05:59:03.769Z,53.33
2023-02-19T06:01:30.175Z,53.31
2023-02-19T06:03:57.599Z,53.44
2023-02-19T06:06:24.254Z,53.22
2023-02-19T06:08:50.576Z,53.11
2023-02-19T06:11:17.364Z,53.39
2023-02-19T06:13:43.679Z,53.05
2023-02-19T06:16:10.017Z,53.51
2023-02-19T06:18:36.425Z,53.24
2023-02-19T06:21:03.344Z,53.18
2023-02-19T06:23:29.720Z,53.08
2023-02-19T06:26:04.217Z,53.16
2023-02-19T06:28:30.552Z,53.16
2023-02-19T06:30:58.135Z,53.30
2023-02-19T06:33:24.446Z,53.15
2023-02-19T06:35:50.767Z,53.22
2023-02-19T06:38:17.088Z,53.10
2023-02-19T06:40:43.421Z,53.08
2023-02-19T06:43:09.741Z,53.15
2023-02-19T06:45:36.095Z,53.21
2023-02-19T06:48:02.448Z,53.24
2023-02-19T06:50:28.786Z,53.29
2023-02-19T06:52:55.128Z,53.14
2023-02-19T06:55:21.508Z,53.17
2023-02-19T06:57:47.828Z,53.33
2023-02-19T07:00:14.221Z,53.14
2023-02-19T07:02:40.554Z,53.21
2023-02-19T07:05:06.896Z,53.15
2023-02-19T07:07:33.222Z,53.29
2023-02-19T07:09:59.565Z,53.22
2023-02-19T07:12:25.901Z,53.08
2023-02-19T07:14:52.231Z,53.25
2023-02-19T07:17:18.560Z,53.29
2023-02-19T07:19:44.902Z,53.18
2023-02-19T07:22:11.237Z,53.35
2023-02-19T07:24:37.564Z,53.19
2023-02-19T07:27:03.888Z,53.28
2023-02-19T07:29:30.217Z,53.09
2023-02-19T07:31:56.562Z,53.06
2023-02-19T07:34:22.902Z,53.13
2023-02-19T07:36:49.231Z,53.21
2023-02-19T07:39:15.865Z,53.30
2023-02-19T07:41:42.208Z,53.13
2023-02-19T07:44:08.536Z,53.22
2023-02-19T07:46:34.880Z,53.30
2023-02-19T07:49:01.215Z,53.05
2023-02-19T07:51:27.553Z,53.22
2023-02-19T07:53:53.923Z,53.00
2023-02-19T07:56:20.675Z,53.22
2023-02-19T07:58:47.024Z,53.11
2023-02-19T08:01:14.313Z,52.99
2023-02-19T08:03:40.975Z,53.01
2023-02-19T08:06:07.579Z,53.13
2023-02-19T08:08:33.895Z,52.84
2023-02-19T08:11:21.992Z,52.49
2023-02-19T08:13:49.051Z,52.57
2023-02-19T08:16:26.587Z,52.48
2023-02-19T08:18:56.316Z,52.52
2023-02-19T08:21:22.650Z,52.28
2023-02-19T08:23:51.137Z,52.62
2023-02-19T08:26:17.701Z,52.39
2023-02-19T08:28:44.053Z,51.03
2023-02-19T08:31:11.285Z,51.58
2023-02-19T08:33:37.880Z,50.47
2023-02-19T08:36:04.848Z,49.88
2023-02-19T08:38:31.665Z,49.35
2023-02-19T08:40:58.164Z,49.93
2023-02-19T08:43:24.489Z,49.35
2023-02-19T08:45:52.356Z,48.09
2023-02-19T08:48:18.759Z,47.56
2023-02-19T08:50:57.962Z,46.94
2023-02-19T08:53:24.410Z,47.08
2023-02-19T08:55:51.175Z,47.54
2023-02-19T08:58:17.533Z,47.83
2023-02-19T09:00:43.882Z,48.04
2023-02-19T09:03:10.269Z,42.22
2023-02-19T09:05:37.361Z,41.67
2023-02-19T09:08:03.689Z,42.63
2023-02-19T09:10:30.025Z,42.91
2023-02-19T09:12:56.359Z,43.94
2023-02-19T09:15:22.712Z,43.88
2023-02-19T09:17:52.608Z,44.26
2023-02-19T09:20:18.928Z,44.56
2023-02-19T09:22:45.239Z,44.76
2023-02-19T09:25:11.561Z,45.27
2023-02-19T09:27:38.017Z,45.56
2023-02-19T09:30:04.402Z,45.78
2023-02-19T09:32:31.020Z,45.77
2023-02-19T09:34:57.443Z,46.28
2023-02-19T09:37:27.460Z,46.94
2023-02-19T09:39:54.063Z,47.35
2023-02-19T09:42:27.224Z,47.56
2023-02-19T09:44:54.223Z,47.71
2023-02-19T09:47:21.135Z,47.98
2023-02-19T09:49:52.008Z,48.50
2023-02-19T09:52:19.175Z,48.51
2023-02-19T09:54:45.611Z,48.94
2023-02-19T09:57:15.804Z,49.15
2023-02-19T09:59:46.279Z,49.31
2023-02-19T10:02:22.372Z,49.93
2023-02-19T10:04:48.815Z,49.75
2023-02-19T10:07:15.514Z,50.56
2023-02-19T10:09:41.994Z,50.46
2023-02-19T10:12:15.464Z,50.62
2023-02-19T10:14:45.220Z,50.93
2023-02-19T10:17:13.965Z,50.98
2023-02-19T10:19:40.281Z,51.02
2023-02-19T10:22:06.697Z,51.63
2023-02-19T10:24:33.022Z,51.51
2023-02-19T10:26:59.357Z,51.59
2023-02-19T10:29:27.161Z,51.69
2023-02-19T10:32:11.928Z,51.82
2023-02-19T10:34:38.336Z,51.92
2023-02-19T10:37:04.689Z,52.22
2023-02-19T10:39:43.330Z,52.31
2023-02-19T10:42:14.224Z,52.23
2023-02-19T10:44:42.515Z,52.47
2023-02-19T10:47:08.845Z,50.26
2023-02-19T10:49:38.916Z,47.82
2023-02-19T10:52:20.236Z,44.84
2023-02-19T10:54:46.861Z,43.26
2023-02-19T10:57:19.359Z,42.77
2023-02-19T10:59:49.162Z,42.29
2023-02-19T11:02:19.204Z,44.91
2023-02-19T11:05:04.402Z,45.82
2023-02-19T11:07:30.735Z,45.72
2023-02-19T11:09:57.048Z,45.85
2023-02-19T11:12:23.764Z,45.80
2023-02-19T11:14:50.084Z,46.16
2023-02-19T11:17:22.603Z,46.56
2023-02-19T11:19:49.987Z,46.70
2023-02-19T11:22:20.884Z,47.11
2023-02-19T11:24:50.464Z,47.33
2023-02-19T11:27:20.894Z,47.68
2023-02-19T11:29:47.231Z,47.61
2023-02-19T11:32:21.899Z,47.64
2023-02-19T11:34:48.311Z,47.60
2023-02-19T11:37:15.228Z,47.73
2023-02-19T11:39:42.446Z,47.70
2023-02-19T11:42:21.684Z,47.71
2023-02-19T11:45:05.180Z,47.77
2023-02-19T11:47:37.478Z,47.90
2023-02-19T11:50:11.446Z,48.04
2023-02-19T11:52:51.287Z,48.06
2023-02-19T11:55:34.283Z,48.39
2023-02-19T11:58:00.545Z,48.14
2023-02-19T12:00:27.316Z,48.49
2023-02-19T12:03:12.589Z,48.50
2023-02-19T12:05:57.507Z,48.46
2023-02-19T12:08:29.038Z,48.60
2023-02-19T12:11:02.660Z,48.40
2023-02-19T12:13:33.248Z,48.73
2023-02-19T12:16:28.990Z,48.71
2023-02-19T12:19:01.304Z,48.61
2023-02-19T12:21:34.433Z,48.52
2023-02-19T12:24:05.100Z,48.89
2023-02-19T12:26:34.818Z,48.77
2023-02-19T12:29:19.793Z,48.79
2023-02-19T12:31:52.327Z,48.75
2023-02-19T12:34:21.223Z,48.91
2023-02-19T12:36:50.978Z,49.06
2023-02-19T12:39:24.560Z,49.17
2023-02-19T12:42:03.339Z,49.18
2023-02-19T12:44:42.592Z,49.27
2023-02-19T12:47:09.259Z,44.82
2023-02-19T12:49:39.559Z,40.75
2023-02-19T12:52:16.735Z,37.31
2023-02-19T12:54:44.199Z,35.66
2023-02-19T12:57:10.497Z,35.25
2023-02-19T12:59:38.081Z,40.24
2023-02-19T13:02:06.478Z,38.75
2023-02-19T13:04:47.490Z,40.93
2023-02-19T13:07:21.476Z,41.18
2023-02-19T13:09:55.887Z,41.99
2023-02-19T13:12:25.296Z,42.03
2023-02-19T13:14:56.865Z,43.61
2023-02-19T13:17:43.531Z,44.07
2023-02-19T13:20:24.943Z,44.57
2023-02-19T13:23:16.056Z,45.22
2023-02-19T13:25:58.884Z,45.68
2023-02-19T13:28:25.196Z,45.83
2023-02-19T13:30:56.440Z,45.73
2023-02-19T13:33:26.072Z,46.05
2023-02-19T13:35:58.732Z,46.60
2023-02-19T13:38:25.107Z,46.75
2023-02-19T13:40:57.651Z,46.64
2023-02-19T13:43:27.837Z,47.12
2023-02-19T13:46:00.860Z,46.86
2023-02-19T13:48:28.472Z,47.19
2023-02-19T13:51:13.286Z,47.07
2023-02-19T13:53:45.944Z,47.38
2023-02-19T13:56:34.203Z,47.80
2023-02-19T13:59:19.475Z,47.86
2023-02-19T14:01:51.735Z,47.66
2023-02-19T14:04:23.848Z,47.77
2023-02-19T14:07:05.532Z,47.49
2023-02-19T14:09:40.894Z,47.45
2023-02-19T14:12:07.134Z,47.62
2023-02-19T14:14:36.952Z,47.65
2023-02-19T14:17:08.062Z,47.11
2023-02-19T14:19:43.909Z,47.41
2023-02-19T14:22:30.751Z,47.14
2023-02-19T14:24:57.077Z,47.50
2023-02-19T14:27:23.463Z,47.64
2023-02-19T14:29:49.773Z,47.73
2023-02-19T14:32:19.443Z,47.35
2023-02-19T14:34:45.890Z,47.69
2023-02-19T14:37:15.989Z,47.81
2023-02-19T14:39:43.365Z,48.13
2023-02-19T14:42:16.412Z,47.85
2023-02-19T14:44:58.734Z,47.88
2023-02-19T14:47:25.756Z,48.34
2023-02-19T14:49:55.547Z,48.11
2023-02-19T14:52:43.514Z,48.13
2023-02-19T14:55:13.002Z,48.11
2023-02-19T14:57:40.218Z,48.43
2023-02-19T15:00:23.191Z,48.29
2023-02-19T15:02:49.968Z,48.38
2023-02-19T15:05:16.756Z,48.36
2023-02-19T15:07:43.085Z,48.36
2023-02-19T15:10:09.411Z,48.17
2023-02-19T15:12:45.708Z,48.44
2023-02-19T15:15:22.146Z,48.38
2023-02-19T15:17:48.483Z,48.40
2023-02-19T15:20:17.095Z,48.46
2023-02-19T15:22:43.457Z,48.64
2023-02-19T15:25:12.244Z,48.35
2023-02-19T15:27:38.575Z,48.65
2023-02-19T15:30:15.371Z,48.65
2023-02-19T15:32:44.052Z,48.83
2023-02-19T15:35:17.727Z,48.64
2023-02-19T15:37:44.055Z,48.85
2023-02-19T15:40:12.258Z,48.68
2023-02-19T15:42:38.600Z,48.90
2023-02-19T15:45:16.816Z,49.00
2023-02-19T15:47:51.966Z,48.87
2023-02-19T15:50:31.011Z,48.99
2023-02-19T15:52:59.761Z,49.01
2023-02-19T15:55:32.158Z,49.13
2023-02-19T15:58:04.263Z,49.13
2023-02-19T16:00:46.772Z,49.22
2023-02-19T16:03:18.179Z,49.08
2023-02-19T16:05:44.635Z,49.20
2023-02-19T16:08:10.879Z,49.18
2023-02-19T16:10:37.224Z,49.18
2023-02-19T16:13:03.835Z,49.52
2023-02-19T16:15:30.788Z,49.19
2023-02-19T16:17:57.120Z,49.47
2023-02-19T16:20:27.594Z,49.67
2023-02-19T16:22:58.031Z,49.51
2023-02-19T16:25:37.746Z,49.52
2023-02-19T16:28:13.924Z,49.52
2023-02-19T16:30:40.300Z,49.36
2023-02-19T16:33:27.886Z,49.30
2023-02-19T16:35:54.239Z,49.33
2023-02-19T16:38:20.601Z,49.21
2023-02-19T16:40:54.137Z,49.29
2023-02-19T16:43:24.586Z,49.34
2023-02-19T16:45:50.967Z,49.56
2023-02-19T16:48:17.323Z,49.45
2023-02-19T16:50:43.956Z,49.56
2023-02-19T16:53:20.239Z,49.39
2023-02-19T16:55:46.567Z,49.47
2023-02-19T16:58:12.896Z,49.31
2023-02-19T17:00:39.885Z,49.38
2023-02-19T17:03:09.012Z,49.35
2023-02-19T17:05:35.812Z,49.14
2023-02-19T17:08:20.943Z,49.28
2023-02-19T17:10:47.272Z,49.22
2023-02-19T17:13:13.608Z,49.38
2023-02-19T17:15:39.988Z,49.50
2023-02-19T17:18:06.317Z,49.39
2023-02-19T17:20:32.731Z,49.58
2023-02-19T17:22:59.133Z,49.48
2023-02-19T17:25:25.449Z,49.38
2023-02-19T17:27:51.767Z,49.64
2023-02-19T17:30:28.258Z,49.50
2023-02-19T17:32:54.642Z,49.78
2023-02-19T17:35:20.965Z,49.61
2023-02-19T17:37:47.304Z,46.19
2023-02-19T17:40:32.323Z,48.16
2023-02-19T17:42:59.413Z,47.19
2023-02-19T17:45:26.009Z,47.38
2023-02-19T17:47:52.976Z,47.58
2023-02-19T17:50:21.269Z,47.49
2023-02-19T17:52:47.663Z,47.91
2023-02-19T17:55:15.641Z,48.42
2023-02-19T17:57:42.273Z,48.49
2023-02-19T18:00:08.774Z,48.64
2023-02-19T18:02:38.863Z,48.33
2023-02-19T18:05:05.216Z,48.53
2023-02-19T18:07:31.531Z,48.27
2023-02-19T18:09:57.856Z,48.75
2023-02-19T18:12:25.751Z,48.70
2023-02-19T18:14:54.506Z,48.67
2023-02-19T18:17:20.838Z,48.70
2023-02-19T18:19:47.417Z,48.92
2023-02-19T18:22:13.812Z,48.96
2023-02-19T18:24:44.851Z,49.18
2023-02-19T18:27:11.181Z,49.12
2023-02-19T18:29:37.508Z,49.12
2023-02-19T18:32:03.962Z,49.17
2023-02-19T18:34:30.346Z,49.29
2023-02-19T18:36:56.678Z,49.12
2023-02-19T18:39:22.987Z,49.40
2023-02-19T18:41:49.517Z,49.57
2023-02-19T18:44:20.288Z,49.71
2023-02-19T18:46:46.631Z,49.53
2023-02-19T18:49:12.987Z,49.66
2023-02-19T18:51:39.312Z,49.89
2023-02-19T18:54:05.663Z,50.36
2023-02-19T18:56:32.000Z,50.65
2023-02-19T18:59:00.284Z,50.01
2023-02-19T19:01:26.696Z,50.53
2023-02-19T19:03:53.039Z,47.86
2023-02-19T19:06:19.357Z,46.51
2023-02-19T19:08:45.676Z,46.02
2023-02-19T19:11:12.304Z,44.97
2023-02-19T19:13:38.767Z,44.95
2023-02-19T19:16:05.145Z,46.31
2023-02-19T19:18:31.685Z,46.87
2023-02-19T19:21:03.079Z,47.33
2023-02-19T19:23:29.422Z,47.31
2023-02-19T19:25:55.784Z,47.68
2023-02-19T19:28:22.110Z,47.94
2023-02-19T19:30:48.577Z,47.97
2023-02-19T19:33:14.930Z,48.01
2023-02-19T19:35:41.252Z,48.06
2023-02-19T19:38:07.578Z,48.39
2023-02-19T19:40:33.905Z,48.39
2023-02-19T19:43:00.248Z,48.29
2023-02-19T19:45:26.603Z,48.53
2023-02-19T19:47:53.078Z,48.43
2023-02-19T19:50:19.457Z,48.44
2023-02-19T19:52:45.793Z,48.37
2023-02-19T19:55:12.105Z,48.51
2023-02-19T19:57:40.776Z,48.60
2023-02-19T20:00:07.358Z,48.74
2023-02-19T20:02:38.638Z,48.76
2023-02-19T20:05:05.087Z,48.64
2023-02-19T20:07:31.411Z,48.67
2023-02-19T20:09:57.746Z,49.02
2023-02-19T20:12:24.081Z,48.99
2023-02-19T20:14:50.401Z,48.91
2023-02-19T20:17:16.784Z,48.91
2023-02-19T20:19:43.164Z,48.85
2023-02-19T20:22:09.496Z,48.97
2023-02-19T20:24:35.824Z,49.04
2023-02-19T20:27:02.540Z,49.00
2023-02-19T20:29:29.391Z,49.20
2023-02-19T20:31:55.845Z,49.13
2023-02-19T20:34:22.256Z,49.35
2023-02-19T20:36:48.629Z,49.44
2023-02-19T20:39:15.600Z,49.72
2023-02-19T20:41:48.601Z,49.69
2023-02-19T20:44:14.977Z,49.55
2023-02-19T20:46:45.064Z,49.63
2023-02-19T20:49:14.353Z,49.63
2023-02-19T20:52:09.944Z,49.59
2023-02-19T20:54:36.299Z,49.49
2023-02-19T20:57:03.379Z,49.38
2023-02-19T20:59:31.167Z,49.64
2023-02-19T21:01:57.933Z,49.46
2023-02-19T21:04:24.351Z,49.42
2023-02-19T21:06:52.208Z,49.52
2023-02-19T21:09:18.980Z,49.59
2023-02-19T21:11:45.296Z,49.77
2023-02-19T21:14:11.639Z,49.63
2023-02-19T21:16:38.028Z,49.39
2023-02-19T21:19:04.370Z,49.50
2023-02-19T21:21:31.756Z,49.47
2023-02-19T21:23:58.399Z,49.34
2023-02-19T21:26:24.894Z,49.43
2023-02-19T21:28:51.466Z,49.48
2023-02-19T21:31:17.923Z,49.53
2023-02-19T21:33:44.322Z,49.60
2023-02-19T21:36:11.128Z,49.52
2023-02-19T21:38:37.602Z,49.32
2023-02-19T21:41:03.911Z,49.54
2023-02-19T21:43:30.234Z,49.66
2023-02-19T21:45:56.590Z,49.56
2023-02-19T21:48:22.943Z,49.68
2023-02-19T21:50:49.295Z,49.54
2023-02-19T21:53:15.610Z,49.95
2023-02-19T21:55:57.490Z,50.07
2023-02-19T21:58:24.858Z,49.93
2023-02-19T22:00:51.241Z,50.16
2023-02-19T22:03:17.617Z,50.18
2023-02-19T22:05:43.934Z,49.94
2023-02-19T22:08:10.298Z,50.21
2023-02-19T22:10:36.616Z,50.05
2023-02-19T22:13:02.944Z,49.98
2023-02-19T22:15:29.300Z,49.83
2023-02-19T22:17:55.627Z,50.00
2023-02-19T22:20:21.949Z,49.95
2023-02-19T22:22:48.540Z,49.90
2023-02-19T22:25:14.850Z,49.83
2023-02-19T22:27:41.169Z,50.11
2023-02-19T22:30:07.612Z,49.87
2023-02-19T22:32:34.116Z,49.78
2023-02-19T22:35:00.531Z,49.96
2023-02-19T22:37:26.844Z,49.87
2023-02-19T22:39:53.165Z,49.79
2023-02-19T22:42:19.479Z,49.61
2023-02-19T22:44:45.803Z,49.76
2023-02-19T22:47:12.124Z,49.75
2023-02-19T22:49:38.781Z,49.85
2023-02-19T22:52:08.215Z,49.66
2023-02-19T22:54:35.021Z,49.72
2023-02-19T22:57:01.339Z,49.96
2023-02-19T22:59:27.683Z,49.73
2023-02-19T23:01:54.035Z,49.74
2023-02-19T23:04:20.582Z,49.77
2023-02-19T23:06:47.064Z,49.83
2023-02-19T23:09:31.516Z,49.88
2023-02-19T23:12:04.661Z,49.95
2023-02-19T23:14:30.995Z,49.99
2023-02-19T23:16:57.473Z,49.98
2023-02-19T23:19:23.866Z,49.79
2023-02-19T23:21:50.434Z,49.84
2023-02-19T23:24:16.756Z,49.84
2023-02-19T23:26:43.555Z,50.00
2023-02-19T23:29:09.922Z,49.89
2023-02-19T23:31:36.303Z,49.82
2023-02-19T23:34:02.813Z,49.82
2023-02-19T23:36:29.133Z,49.82
2023-02-19T23:38:55.447Z,49.74
2023-02-19T23:41:21.773Z,49.96
2023-02-19T23:43:48.140Z,49.88
2023-02-19T23:46:15.665Z,49.89
2023-02-19T23:48:42.172Z,49.69
2023-02-19T23:51:08.486Z,49.72
2023-02-19T23:53:34.865Z,49.77
2023-02-19T23:56:01.246Z,49.96
2023-02-19T23:58:27.577Z,49.79
